createdAt,value
2016-09-13T00:00:45.404Z,1007.6
2016-09-13T00:01:45.398Z,1007.6
2016-09-13T00:02:45.392Z,1007.57
2016-09-13T00:03:45.386Z,1007.6
2016-09-13T00:04:45.378Z,1007.57
2016-09-13T00:05:45.370Z,1007.57
2016-09-13T00:06:45.365Z,1007.57
2016-09-13T00:07:45.358Z,1007.56
2016-09-13T00:08:45.353Z,1007.55
2016-09-13T00:09:45.344Z,1007.54
2016-09-13T00:10:45.339Z,1007.52
2016-09-13T00:11:45.335Z,1007.53
2016-09-13T00:12:45.324Z,1007.53
2016-09-13T00:13:45.319Z,1007.53
2016-09-13T00:14:45.315Z,1007.48
2016-09-13T00:15:45.309Z,1007.5
2016-09-13T00:16:45.300Z,1007.5
2016-09-13T00:17:45.291Z,1007.5
2016-09-13T00:18:45.286Z,1007.49
2016-09-13T00:19:45.281Z,1007.47
2016-09-13T00:20:45.272Z,1007.48
2016-09-13T00:21:45.264Z,1007.5
2016-09-13T00:22:45.260Z,1007.49
2016-09-13T00:23:45.456Z,1007.51
2016-09-13T00:24:45.245Z,1007.48
2016-09-13T00:25:45.241Z,1007.5
2016-09-13T00:26:45.236Z,1007.48
2016-09-13T00:27:45.226Z,1007.52
2016-09-13T00:28:45.219Z,1007.53
2016-09-13T00:29:45.212Z,1007.55
2016-09-13T00:30:45.205Z,1007.53
2016-09-13T00:31:45.197Z,1007.56
2016-09-13T00:32:45.192Z,1007.57
2016-09-13T00:33:45.186Z,1007.57
2016-09-13T00:34:45.191Z,1007.53
2016-09-13T00:35:45.171Z,1007.55
2016-09-13T00:36:45.164Z,1007.54
2016-09-13T00:37:45.159Z,1007.56
2016-09-13T00:38:45.152Z,1007.56
2016-09-13T00:39:45.145Z,1007.55
2016-09-13T00:40:45.138Z,1007.55
2016-09-13T00:41:45.131Z,1007.52
2016-09-13T00:42:45.123Z,1007.53
2016-09-13T00:43:45.119Z,1007.52
2016-09-13T00:44:45.113Z,1007.5
2016-09-13T00:45:45.103Z,1007.48
2016-09-13T00:46:45.097Z,1007.52
2016-09-13T00:47:45.090Z,1007.54
2016-09-13T00:48:45.087Z,1007.55
2016-09-13T00:49:45.078Z,1007.51
2016-09-13T00:50:45.072Z,1007.58
2016-09-13T00:51:45.067Z,1007.56
2016-09-13T00:52:45.057Z,1007.54
2016-09-13T00:53:45.051Z,1007.53
2016-09-13T00:54:45.043Z,1007.53
2016-09-13T00:55:45.037Z,1007.51
2016-09-13T00:56:45.029Z,1007.53
2016-09-13T00:57:45.023Z,1007.51
2016-09-13T00:58:45.019Z,1007.5
2016-09-13T00:59:45.008Z,1007.5
2016-09-13T01:00:45.005Z,1007.54
2016-09-13T01:01:44.994Z,1007.5
2016-09-13T01:02:44.989Z,1007.49
2016-09-13T01:03:44.980Z,1007.49
2016-09-13T01:04:44.974Z,1007.5
2016-09-13T01:05:44.966Z,1007.49
2016-09-13T01:06:44.959Z,1007.49
2016-09-13T01:07:44.951Z,1007.47
2016-09-13T01:08:44.945Z,1007.51
2016-09-13T01:09:44.939Z,1007.53
2016-09-13T01:10:44.932Z,1007.53
2016-09-13T01:11:44.926Z,1007.46
2016-09-13T01:12:44.917Z,1007.49
2016-09-13T01:13:44.913Z,1007.44
2016-09-13T01:14:44.904Z,1007.46
2016-09-13T01:15:44.896Z,1007.41
2016-09-13T01:16:44.890Z,1007.37
2016-09-13T01:17:44.881Z,1007.42
2016-09-13T01:18:44.876Z,1007.41
2016-09-13T01:19:44.868Z,1007.36
2016-09-13T01:20:44.862Z,1007.35
2016-09-13T01:21:44.855Z,1007.34
2016-09-13T01:22:44.845Z,1007.34
2016-09-13T01:23:44.840Z,1007.32
2016-09-13T01:24:44.833Z,1007.34
2016-09-13T01:25:44.826Z,1007.32
2016-09-13T01:26:44.818Z,1007.31
2016-09-13T01:27:44.811Z,1007.31
2016-09-13T01:28:44.806Z,1007.3
2016-09-13T01:29:44.797Z,1007.31
2016-09-13T01:30:44.788Z,1007.29
2016-09-13T01:31:44.783Z,1007.31
2016-09-13T01:32:44.775Z,1007.29
2016-09-13T01:33:44.768Z,1007.31
2016-09-13T01:34:44.761Z,1007.3
2016-09-13T01:35:44.755Z,1007.31
2016-09-13T01:36:44.747Z,1007.31
2016-09-13T01:37:44.741Z,1007.27
2016-09-13T01:38:44.733Z,1007.29
2016-09-13T01:39:44.724Z,1007.29
2016-09-13T01:40:44.717Z,1007.28
2016-09-13T01:41:44.711Z,1007.22
2016-09-13T01:42:44.705Z,1007.22
2016-09-13T01:43:44.697Z,1007.23
2016-09-13T01:44:44.688Z,1007.25
2016-09-13T01:45:44.682Z,1007.24
2016-09-13T01:46:44.677Z,1007.24
2016-09-13T01:47:44.666Z,1007.22
2016-09-13T01:48:44.660Z,1007.22
2016-09-13T01:49:44.653Z,1007.16
2016-09-13T01:50:44.646Z,1007.19
2016-09-13T01:51:44.638Z,1007.21
2016-09-13T01:52:44.630Z,1007.2
2016-09-13T01:53:44.624Z,1007.17
2016-09-13T01:54:44.616Z,1007.16
2016-09-13T01:55:44.608Z,1007.13
2016-09-13T01:56:44.602Z,1007.15
2016-09-13T01:57:44.598Z,1007.13
2016-09-13T01:58:44.588Z,1007.16
2016-09-13T01:59:44.580Z,1007.14
2016-09-13T02:00:44.574Z,1007.15
2016-09-13T02:01:44.568Z,1007.21
2016-09-13T02:02:44.559Z,1007.18
2016-09-13T02:03:44.552Z,1007.17
2016-09-13T02:04:44.543Z,1007.21
2016-09-13T02:05:44.543Z,1007.19
2016-09-13T02:06:44.531Z,1007.19
2016-09-13T02:07:44.523Z,1007.25
2016-09-13T02:08:44.520Z,1007.2
2016-09-13T02:09:44.507Z,1007.23
2016-09-13T02:10:44.503Z,1007.21
2016-09-13T02:11:44.497Z,1007.2
2016-09-13T02:12:44.490Z,1007.2
2016-09-13T02:13:44.480Z,1007.18
2016-09-13T02:14:44.470Z,1007.17
2016-09-13T02:15:44.468Z,1007.18
2016-09-13T02:16:44.458Z,1007.19
2016-09-13T02:17:44.450Z,1007.17
2016-09-13T02:18:44.443Z,1007.16
2016-09-13T02:19:44.439Z,1007.14
2016-09-13T02:20:44.430Z,1007.14
2016-09-13T02:21:44.421Z,1007.12
2016-09-13T02:22:44.418Z,1007.07
2016-09-13T02:23:44.610Z,1007.07
2016-09-13T02:24:44.398Z,1007.05
2016-09-13T02:25:44.391Z,1007.07
2016-09-13T02:26:44.386Z,1007.05
2016-09-13T02:27:44.377Z,1007.07
2016-09-13T02:28:44.374Z,1007.01
2016-09-13T02:29:44.364Z,1007.05
2016-09-13T02:30:44.358Z,1007.03
2016-09-13T02:31:44.350Z,1007.06
2016-09-13T02:32:44.344Z,1007.04
2016-09-13T02:33:44.335Z,1007.05
2016-09-13T02:34:44.337Z,1007.03
2016-09-13T02:35:44.319Z,1007.01
2016-09-13T02:36:44.324Z,1007
2016-09-13T02:37:44.307Z,1007
2016-09-13T02:38:44.297Z,1007
2016-09-13T02:39:44.293Z,1006.99
2016-09-13T02:40:44.285Z,1006.97
2016-09-13T02:41:44.280Z,1006.96
2016-09-13T02:42:44.272Z,1006.96
2016-09-13T02:43:44.262Z,1006.94
2016-09-13T02:44:44.259Z,1006.97
2016-09-13T02:45:44.248Z,1006.97
2016-09-13T02:46:44.243Z,1006.98
2016-09-13T02:47:44.236Z,1006.95
2016-09-13T02:48:44.228Z,1006.93
2016-09-13T02:49:44.220Z,1006.96
2016-09-13T02:50:44.220Z,1006.95
2016-09-13T02:51:44.205Z,1006.96
2016-09-13T02:52:44.206Z,1006.97
2016-09-13T02:53:44.191Z,1006.97
2016-09-13T02:54:44.185Z,1006.98
2016-09-13T02:55:44.180Z,1006.95
2016-09-13T02:56:44.174Z,1006.94
2016-09-13T02:57:44.162Z,1006.96
2016-09-13T02:58:44.156Z,1006.96
2016-09-13T02:59:44.148Z,1006.97
2016-09-13T03:00:44.140Z,1006.95
2016-09-13T03:01:44.147Z,1006.97
2016-09-13T03:02:44.126Z,1006.93
2016-09-13T03:03:44.119Z,1006.96
2016-09-13T03:04:44.112Z,1006.94
2016-09-13T03:05:44.104Z,1006.92
2016-09-13T03:06:44.098Z,1006.9
2016-09-13T03:07:44.097Z,1006.94
2016-09-13T03:08:44.095Z,1006.92
2016-09-13T03:09:44.081Z,1006.92
2016-09-13T03:10:44.071Z,1006.93
2016-09-13T03:11:44.061Z,1006.92
2016-09-13T03:12:44.053Z,1006.92
2016-09-13T03:13:44.047Z,1006.92
2016-09-13T03:14:44.040Z,1006.92
2016-09-13T03:15:44.033Z,1006.94
2016-09-13T03:16:44.024Z,1006.85
2016-09-13T03:17:44.018Z,1006.89
2016-09-13T03:18:44.013Z,1006.86
2016-09-13T03:19:44.001Z,1006.87
2016-09-13T03:20:43.998Z,1006.85
2016-09-13T03:21:43.989Z,1006.84
2016-09-13T03:22:43.980Z,1006.85
2016-09-13T03:23:43.972Z,1006.84
2016-09-13T03:24:43.967Z,1006.86
2016-09-13T03:25:43.958Z,1006.83
2016-09-13T03:26:43.951Z,1006.83
2016-09-13T03:27:43.945Z,1006.86
2016-09-13T03:28:43.937Z,1006.8
2016-09-13T03:29:43.929Z,1006.83
2016-09-13T03:30:43.923Z,1006.8
2016-09-13T03:31:43.918Z,1006.82
2016-09-13T03:32:43.909Z,1006.8
2016-09-13T03:33:43.900Z,1006.79
2016-09-13T03:34:43.892Z,1006.79
2016-09-13T03:35:43.886Z,1006.78
2016-09-13T03:36:43.879Z,1006.81
2016-09-13T03:37:43.870Z,1006.83
2016-09-13T03:38:43.864Z,1006.79
2016-09-13T03:39:43.855Z,1006.78
2016-09-13T03:40:43.848Z,1006.78
2016-09-13T03:41:43.844Z,1006.74
2016-09-13T03:42:43.834Z,1006.78
2016-09-13T03:43:43.825Z,1006.75
2016-09-13T03:44:43.817Z,1006.76
2016-09-13T03:45:43.812Z,1006.73
2016-09-13T03:46:43.804Z,1006.76
2016-09-13T03:47:43.797Z,1006.73
2016-09-13T03:48:43.789Z,1006.74
2016-09-13T03:49:43.782Z,1006.73
2016-09-13T03:50:43.777Z,1006.71
2016-09-13T03:51:43.769Z,1006.71
2016-09-13T03:52:43.760Z,1006.71
2016-09-13T03:53:43.752Z,1006.68
2016-09-13T03:54:43.745Z,1006.74
2016-09-13T03:55:43.739Z,1006.68
2016-09-13T03:56:43.729Z,1006.7
2016-09-13T03:57:43.723Z,1006.66
2016-09-13T03:58:43.715Z,1006.69
2016-09-13T03:59:43.708Z,1006.66
2016-09-13T04:00:43.702Z,1006.66
2016-09-13T04:01:43.697Z,1006.65
2016-09-13T04:02:43.686Z,1006.64
2016-09-13T04:03:43.690Z,1006.65
2016-09-13T04:04:43.670Z,1006.65
2016-09-13T04:05:43.681Z,1006.68
2016-09-13T04:06:43.656Z,1006.66
2016-09-13T04:07:43.656Z,1006.68
2016-09-13T04:08:43.640Z,1006.68
2016-09-13T04:09:43.651Z,1006.67
2016-09-13T04:10:43.627Z,1006.68
2016-09-13T04:11:43.636Z,1006.68
2016-09-13T04:12:43.624Z,1006.7
2016-09-13T04:13:43.629Z,1006.7
2016-09-13T04:14:43.598Z,1006.69
2016-09-13T04:15:43.589Z,1006.69
2016-09-13T04:16:43.582Z,1006.66
2016-09-13T04:17:43.577Z,1006.67
2016-09-13T04:18:43.567Z,1006.66
2016-09-13T04:19:43.560Z,1006.69
2016-09-13T04:20:43.552Z,1006.71
2016-09-13T04:21:43.550Z,1006.71
2016-09-13T04:22:43.537Z,1006.75
2016-09-13T04:23:43.738Z,1006.69
2016-09-13T04:24:43.522Z,1006.73
2016-09-13T04:25:43.515Z,1006.71
2016-09-13T04:26:43.507Z,1006.71
2016-09-13T04:27:43.499Z,1006.68
2016-09-13T04:28:43.492Z,1006.69
2016-09-13T04:29:43.485Z,1006.67
2016-09-13T04:30:43.477Z,1006.68
2016-09-13T04:31:43.473Z,1006.63
2016-09-13T04:32:43.460Z,1006.66
2016-09-13T04:33:43.454Z,1006.68
2016-09-13T04:34:43.447Z,1006.67
2016-09-13T04:35:43.438Z,1006.7
2016-09-13T04:36:43.433Z,1006.68
2016-09-13T04:37:43.425Z,1006.68
2016-09-13T04:38:43.416Z,1006.68
2016-09-13T04:39:43.408Z,1006.69
2016-09-13T04:40:43.401Z,1006.69
2016-09-13T04:41:43.395Z,1006.69
2016-09-13T04:42:43.387Z,1006.66
2016-09-13T04:43:43.377Z,1006.64
2016-09-13T04:44:43.369Z,1006.67
2016-09-13T04:45:43.369Z,1006.64
2016-09-13T04:46:43.357Z,1006.64
2016-09-13T04:47:43.346Z,1006.63
2016-09-13T04:48:43.341Z,1006.59
2016-09-13T04:49:43.331Z,1006.63
2016-09-13T04:50:43.324Z,1006.65
2016-09-13T04:51:43.316Z,1006.63
2016-09-13T04:52:43.308Z,1006.62
2016-09-13T04:53:43.302Z,1006.65
2016-09-13T04:54:43.292Z,1006.63
2016-09-13T04:55:43.285Z,1006.66
2016-09-13T04:56:43.278Z,1006.64
2016-09-13T04:57:43.273Z,1006.63
2016-09-13T04:58:43.262Z,1006.67
2016-09-13T04:59:43.254Z,1006.66
2016-09-13T05:00:43.247Z,1006.67
2016-09-13T05:01:43.238Z,1006.67
2016-09-13T05:02:43.231Z,1006.67
2016-09-13T05:03:43.224Z,1006.7
2016-09-13T05:04:43.214Z,1006.71
2016-09-13T05:05:43.207Z,1006.74
2016-09-13T05:06:43.204Z,1006.73
2016-09-13T05:07:43.192Z,1006.76
2016-09-13T05:08:43.183Z,1006.78
2016-09-13T05:09:43.176Z,1006.78
2016-09-13T05:10:43.167Z,1006.82
2016-09-13T05:11:43.162Z,1006.8
2016-09-13T05:12:43.202Z,1006.82
2016-09-13T05:13:43.144Z,1006.83
2016-09-13T05:14:43.138Z,1006.87
2016-09-13T05:15:43.130Z,1006.85
2016-09-13T05:16:43.123Z,1006.87
2016-09-13T05:17:43.114Z,1006.9
2016-09-13T05:18:43.108Z,1006.88
2016-09-13T05:19:43.099Z,1006.88
2016-09-13T05:20:43.091Z,1006.86
2016-09-13T05:21:43.084Z,1006.87
2016-09-13T05:22:43.077Z,1006.9
2016-09-13T05:23:43.068Z,1006.89
2016-09-13T05:24:43.066Z,1006.88
2016-09-13T05:25:43.053Z,1006.9
2016-09-13T05:26:43.045Z,1006.87
2016-09-13T05:27:43.038Z,1006.84
2016-09-13T05:28:43.029Z,1006.86
2016-09-13T05:29:43.024Z,1006.87
2016-09-13T05:30:43.014Z,1006.87
2016-09-13T05:31:43.006Z,1006.87
2016-09-13T05:32:43.000Z,1006.87
2016-09-13T05:33:42.992Z,1006.86
2016-09-13T05:34:42.985Z,1006.85
2016-09-13T05:35:42.980Z,1006.86
2016-09-13T05:36:42.969Z,1006.86
2016-09-13T05:37:42.962Z,1006.84
2016-09-13T05:38:42.957Z,1006.85
2016-09-13T05:39:42.949Z,1006.86
2016-09-13T05:40:42.940Z,1006.87
2016-09-13T05:41:42.933Z,1006.83
2016-09-13T05:42:42.923Z,1006.84
2016-09-13T05:43:42.920Z,1006.88
2016-09-13T05:44:42.908Z,1006.84
2016-09-13T05:45:42.901Z,1006.9
2016-09-13T05:46:42.893Z,1006.89
2016-09-13T05:47:42.887Z,1006.88
2016-09-13T05:48:42.878Z,1006.88
2016-09-13T05:49:42.871Z,1006.91
2016-09-13T05:50:42.884Z,1006.97
2016-09-13T05:51:42.863Z,1006.91
2016-09-13T05:52:42.849Z,1006.95
2016-09-13T05:53:42.841Z,1006.96
2016-09-13T05:54:42.836Z,1006.98
2016-09-13T05:55:42.826Z,1006.97
2016-09-13T05:56:42.818Z,1006.97
2016-09-13T05:57:42.811Z,1007
2016-09-13T05:58:42.804Z,1006.98
2016-09-13T05:59:42.795Z,1006.99
2016-09-13T06:00:42.945Z,1007.01
2016-09-13T06:01:42.780Z,1006.98
2016-09-13T06:02:42.795Z,1007.02
2016-09-13T06:03:42.766Z,1007
2016-09-13T06:04:42.764Z,1006.98
2016-09-13T06:05:42.752Z,1006.97
2016-09-13T06:06:42.747Z,1006.99
2016-09-13T06:07:42.738Z,1006.98
2016-09-13T06:08:42.731Z,1006.97
2016-09-13T06:09:42.723Z,1006.97
2016-09-13T06:10:42.715Z,1006.98
2016-09-13T06:11:42.710Z,1006.96
2016-09-13T06:12:42.701Z,1006.97
2016-09-13T06:13:42.695Z,1006.97
2016-09-13T06:14:42.685Z,1006.95
2016-09-13T06:15:42.678Z,1006.97
2016-09-13T06:16:42.672Z,1007
2016-09-13T06:17:42.663Z,1006.99
2016-09-13T06:18:42.658Z,1007
2016-09-13T06:19:42.648Z,1007
2016-09-13T06:20:42.641Z,1007.05
2016-09-13T06:21:42.632Z,1007.05
2016-09-13T06:22:42.626Z,1007.07
2016-09-13T06:23:42.622Z,1007.06
2016-09-13T06:24:42.612Z,1007.06
2016-09-13T06:25:42.604Z,1007.05
2016-09-13T06:26:42.598Z,1007.05
2016-09-13T06:27:42.591Z,1007.05
2016-09-13T06:28:42.584Z,1007.1
2016-09-13T06:29:42.577Z,1007.1
2016-09-13T06:30:42.580Z,1007.14
2016-09-13T06:31:42.564Z,1007.13
2016-09-13T06:32:42.555Z,1007.13
2016-09-13T06:33:42.548Z,1007.15
2016-09-13T06:34:42.540Z,1007.13
2016-09-13T06:35:42.537Z,1007.15
2016-09-13T06:36:42.526Z,1007.15
2016-09-13T06:37:42.519Z,1007.17
2016-09-13T06:38:42.513Z,1007.18
2016-09-13T06:39:42.507Z,1007.17
2016-09-13T06:40:42.497Z,1007.15
2016-09-13T06:41:42.492Z,1007.16
2016-09-13T06:42:42.485Z,1007.17
2016-09-13T06:43:42.480Z,1007.17
2016-09-13T06:44:42.470Z,1007.17
2016-09-13T06:45:42.466Z,1007.12
2016-09-13T06:46:42.458Z,1007.15
2016-09-13T06:47:42.453Z,1007.18
2016-09-13T06:48:42.445Z,1007.15
2016-09-13T06:49:42.441Z,1007.15
2016-09-13T06:50:42.433Z,1007.14
2016-09-13T06:51:42.426Z,1007.17
2016-09-13T06:52:42.417Z,1007.18
2016-09-13T06:53:42.413Z,1007.2
2016-09-13T06:54:42.402Z,1007.24
2016-09-13T06:55:42.408Z,1007.2
2016-09-13T06:56:42.390Z,1007.25
2016-09-13T06:57:42.383Z,1007.22
2016-09-13T06:58:42.378Z,1007.19
2016-09-13T06:59:42.369Z,1007.22
2016-09-13T07:00:42.363Z,1007.15
2016-09-13T07:01:42.357Z,1007.2
2016-09-13T07:02:42.349Z,1007.17
2016-09-13T07:03:42.342Z,1007.18
2016-09-13T07:04:42.336Z,1007.18
2016-09-13T07:05:42.330Z,1007.22
2016-09-13T07:06:42.324Z,1007.21
2016-09-13T07:07:42.318Z,1007.23
2016-09-13T07:08:42.316Z,1007.2
2016-09-13T07:09:42.304Z,1007.24
2016-09-13T07:10:42.299Z,1007.23
2016-09-13T07:11:42.292Z,1007.24
2016-09-13T07:12:42.284Z,1007.23
2016-09-13T07:13:42.281Z,1007.24
2016-09-13T07:14:42.274Z,1007.24
2016-09-13T07:15:42.267Z,1007.26
2016-09-13T07:16:42.260Z,1007.23
2016-09-13T07:17:42.255Z,1007.27
2016-09-13T07:18:42.259Z,1007.24
2016-09-13T07:19:42.245Z,1007.24
2016-09-13T07:20:42.235Z,1007.28
2016-09-13T07:21:42.232Z,1007.32
2016-09-13T07:22:42.222Z,1007.26
2016-09-13T07:23:42.217Z,1007.28
2016-09-13T07:24:42.210Z,1007.31
2016-09-13T07:25:42.205Z,1007.28
2016-09-13T07:26:42.199Z,1007.27
2016-09-13T07:27:42.192Z,1007.28
2016-09-13T07:28:42.185Z,1007.27
2016-09-13T07:29:42.180Z,1007.26
2016-09-13T07:30:42.174Z,1007.27
2016-09-13T07:31:42.166Z,1007.28
2016-09-13T07:32:42.160Z,1007.28
2016-09-13T07:33:42.155Z,1007.23
2016-09-13T07:34:42.149Z,1007.29
2016-09-13T07:35:42.143Z,1007.3
2016-09-13T07:36:42.139Z,1007.28
2016-09-13T07:37:42.131Z,1007.3
2016-09-13T07:38:42.125Z,1007.31
2016-09-13T07:39:42.119Z,1007.33
2016-09-13T07:40:42.119Z,1007.31
2016-09-13T07:41:42.108Z,1007.32
2016-09-13T07:42:42.101Z,1007.29
2016-09-13T07:43:42.096Z,1007.3
2016-09-13T07:44:42.089Z,1007.31
2016-09-13T07:45:42.124Z,1007.34
2016-09-13T07:46:42.084Z,1007.35
2016-09-13T07:47:42.073Z,1007.32
2016-09-13T07:48:42.067Z,1007.27
2016-09-13T07:49:42.061Z,1007.29
2016-09-13T07:50:42.058Z,1007.31
2016-09-13T07:51:42.050Z,1007.3
2016-09-13T07:52:42.045Z,1007.34
2016-09-13T07:53:42.038Z,1007.31
2016-09-13T07:54:42.050Z,1007.31
2016-09-13T07:55:42.028Z,1007.35
2016-09-13T07:56:42.021Z,1007.34
2016-09-13T07:57:42.018Z,1007.32
2016-09-13T07:58:42.010Z,1007.33
2016-09-13T07:59:42.006Z,1007.34
2016-09-13T08:00:41.997Z,1007.33
2016-09-13T08:01:41.993Z,1007.33
2016-09-13T08:02:41.990Z,1007.35
2016-09-13T08:03:41.981Z,1007.33
2016-09-13T08:04:41.975Z,1007.35
2016-09-13T08:05:41.970Z,1007.37
2016-09-13T08:06:41.965Z,1007.33
2016-09-13T08:07:41.967Z,1007.31
2016-09-13T08:08:41.955Z,1007.33
2016-09-13T08:09:41.949Z,1007.36
2016-09-13T08:10:41.944Z,1007.36
2016-09-13T08:11:41.938Z,1007.36
2016-09-13T08:12:41.932Z,1007.39
2016-09-13T08:13:41.928Z,1007.4
2016-09-13T08:14:41.923Z,1007.39
2016-09-13T08:15:41.918Z,1007.39
2016-09-13T08:16:41.913Z,1007.36
2016-09-13T08:17:41.910Z,1007.32
2016-09-13T08:18:41.904Z,1007.37
2016-09-13T08:19:41.898Z,1007.34
2016-09-13T08:20:41.893Z,1007.36
2016-09-13T08:21:41.894Z,1007.34
2016-09-13T08:22:41.896Z,1007.34
2016-09-13T08:23:41.880Z,1007.38
2016-09-13T08:24:42.079Z,1007.39
2016-09-13T08:25:41.871Z,1007.37
2016-09-13T08:26:41.866Z,1007.37
2016-09-13T08:27:41.862Z,1007.39
2016-09-13T08:28:41.865Z,1007.4
2016-09-13T08:29:41.854Z,1007.38
2016-09-13T08:30:41.853Z,1007.4
2016-09-13T08:31:41.847Z,1007.4
2016-09-13T08:32:41.840Z,1007.4
2016-09-13T08:33:41.837Z,1007.37
2016-09-13T08:34:41.831Z,1007.38
2016-09-13T08:35:41.825Z,1007.32
2016-09-13T08:36:41.823Z,1007.33
2016-09-13T08:37:41.817Z,1007.34
2016-09-13T08:38:41.812Z,1007.36
2016-09-13T08:39:41.807Z,1007.32
2016-09-13T08:40:41.803Z,1007.33
2016-09-13T08:41:41.797Z,1007.3
2016-09-13T08:42:41.794Z,1007.3
2016-09-13T08:43:41.792Z,1007.31
2016-09-13T08:44:41.784Z,1007.36
2016-09-13T08:45:41.780Z,1007.35
2016-09-13T08:46:41.777Z,1007.33
2016-09-13T08:47:41.772Z,1007.33
2016-09-13T08:48:41.769Z,1007.3
2016-09-13T08:49:41.774Z,1007.32
2016-09-13T08:50:41.761Z,1007.28
2016-09-13T08:51:41.753Z,1007.29
2016-09-13T08:52:41.751Z,1007.29
2016-09-13T08:53:41.748Z,1007.3
2016-09-13T08:54:41.741Z,1007.28
2016-09-13T08:55:41.737Z,1007.3
2016-09-13T08:56:41.734Z,1007.28
2016-09-13T08:57:41.728Z,1007.28
2016-09-13T08:58:41.723Z,1007.2
2016-09-13T08:59:41.720Z,1007.24
2016-09-13T09:00:41.714Z,1007.21
2016-09-13T09:01:41.712Z,1007.23
2016-09-13T09:02:41.705Z,1007.22
2016-09-13T09:03:41.701Z,1007.2
2016-09-13T09:04:41.697Z,1007.22
2016-09-13T09:05:41.691Z,1007.18
2016-09-13T09:06:41.688Z,1007.17
2016-09-13T09:07:41.684Z,1007.16
2016-09-13T09:08:41.679Z,1007.2
2016-09-13T09:09:41.674Z,1007.18
2016-09-13T09:10:41.667Z,1007.18
2016-09-13T09:11:41.665Z,1007.17
2016-09-13T09:12:41.660Z,1007.16
2016-09-13T09:13:41.657Z,1007.17
2016-09-13T09:14:41.652Z,1007.17
2016-09-13T09:15:41.647Z,1007.18
2016-09-13T09:16:41.643Z,1007.17
2016-09-13T09:17:41.641Z,1007.18
2016-09-13T09:18:41.634Z,1007.16
2016-09-13T09:19:41.629Z,1007.15
2016-09-13T09:20:41.624Z,1007.19
2016-09-13T09:21:41.619Z,1007.2
2016-09-13T09:22:41.617Z,1007.16
2016-09-13T09:23:41.612Z,1007.14
2016-09-13T09:24:41.608Z,1007.16
2016-09-13T09:25:41.603Z,1007.13
2016-09-13T09:26:41.598Z,1007.14
2016-09-13T09:27:41.595Z,1007.14
2016-09-13T09:28:41.590Z,1007.14
2016-09-13T09:29:41.586Z,1007.12
2016-09-13T09:30:41.581Z,1007.11
2016-09-13T09:31:41.577Z,1007.07
2016-09-13T09:32:41.573Z,1007.08
2016-09-13T09:33:41.569Z,1007.08
2016-09-13T09:34:41.563Z,1007.05
2016-09-13T09:35:41.559Z,1007.09
2016-09-13T09:36:41.554Z,1007.04
2016-09-13T09:37:41.552Z,1007.05
2016-09-13T09:38:41.548Z,1007.06
2016-09-13T09:39:41.542Z,1007.04
2016-09-13T09:40:41.546Z,1007.01
2016-09-13T09:41:41.535Z,1007.06
2016-09-13T09:42:41.542Z,1007.02
2016-09-13T09:43:41.533Z,1007.02
2016-09-13T09:44:41.524Z,1006.97
2016-09-13T09:45:41.518Z,1007.05
2016-09-13T09:46:41.521Z,1007.03
2016-09-13T09:47:41.512Z,1007
2016-09-13T09:48:41.506Z,1006.98
2016-09-13T09:49:41.502Z,1006.99
2016-09-13T09:50:41.497Z,1006.99
2016-09-13T09:51:41.495Z,1006.96
2016-09-13T09:52:41.490Z,1006.97
2016-09-13T09:53:41.489Z,1006.98
2016-09-13T09:54:41.480Z,1006.95
2016-09-13T09:55:41.477Z,1006.99
2016-09-13T09:56:41.474Z,1006.99
2016-09-13T09:57:41.468Z,1006.96
2016-09-13T09:58:41.464Z,1006.94
2016-09-13T09:59:41.461Z,1006.94
2016-09-13T10:00:41.457Z,1006.93
2016-09-13T10:01:41.453Z,1006.91
2016-09-13T10:02:41.447Z,1006.87
2016-09-13T10:03:41.446Z,1006.91
2016-09-13T10:04:41.441Z,1006.88
2016-09-13T10:05:41.439Z,1006.88
2016-09-13T10:06:41.432Z,1006.89
2016-09-13T10:07:41.439Z,1006.86
2016-09-13T10:08:41.423Z,1006.86
2016-09-13T10:09:41.420Z,1006.81
2016-09-13T10:10:41.416Z,1006.83
2016-09-13T10:11:41.414Z,1006.78
2016-09-13T10:12:41.408Z,1006.8
2016-09-13T10:13:41.407Z,1006.78
2016-09-13T10:14:41.401Z,1006.77
2016-09-13T10:15:41.395Z,1006.76
2016-09-13T10:16:41.391Z,1006.76
2016-09-13T10:17:41.388Z,1006.75
2016-09-13T10:18:41.384Z,1006.73
2016-09-13T10:19:41.381Z,1006.72
2016-09-13T10:20:41.377Z,1006.72
2016-09-13T10:21:41.374Z,1006.71
2016-09-13T10:22:41.371Z,1006.7
2016-09-13T10:23:41.366Z,1006.71
2016-09-13T10:24:41.567Z,1006.73
2016-09-13T10:25:41.360Z,1006.73
2016-09-13T10:26:41.360Z,1006.7
2016-09-13T10:27:41.352Z,1006.66
2016-09-13T10:28:41.349Z,1006.66
2016-09-13T10:29:41.345Z,1006.65
2016-09-13T10:30:41.345Z,1006.69
2016-09-13T10:31:41.339Z,1006.64
2016-09-13T10:32:41.335Z,1006.62
2016-09-13T10:33:41.333Z,1006.61
2016-09-13T10:34:41.327Z,1006.62
2016-09-13T10:35:41.322Z,1006.64
2016-09-13T10:36:41.320Z,1006.65
2016-09-13T10:37:41.315Z,1006.67
2016-09-13T10:38:41.311Z,1006.66
2016-09-13T10:39:41.308Z,1006.65
2016-09-13T10:40:41.305Z,1006.62
2016-09-13T10:41:41.302Z,1006.66
2016-09-13T10:42:41.299Z,1006.64
2016-09-13T10:43:41.298Z,1006.62
2016-09-13T10:44:41.292Z,1006.56
2016-09-13T10:45:41.289Z,1006.58
2016-09-13T10:46:41.287Z,1006.6
2016-09-13T10:47:41.286Z,1006.58
2016-09-13T10:48:41.280Z,1006.58
2016-09-13T10:49:41.279Z,1006.57
2016-09-13T10:50:41.276Z,1006.58
2016-09-13T10:51:41.274Z,1006.61
2016-09-13T10:52:41.274Z,1006.58
2016-09-13T10:53:41.272Z,1006.58
2016-09-13T10:54:41.267Z,1006.56
2016-09-13T10:55:41.263Z,1006.58
2016-09-13T10:56:41.264Z,1006.58
2016-09-13T10:57:41.264Z,1006.57
2016-09-13T10:58:41.259Z,1006.57
2016-09-13T10:59:41.257Z,1006.56
2016-09-13T11:00:41.256Z,1006.57
2016-09-13T11:01:41.254Z,1006.58
2016-09-13T11:02:41.253Z,1006.54
2016-09-13T11:03:41.253Z,1006.56
2016-09-13T11:04:41.252Z,1006.59
2016-09-13T11:05:41.249Z,1006.56
2016-09-13T11:06:41.251Z,1006.56
2016-09-13T11:07:41.249Z,1006.52
2016-09-13T11:08:41.249Z,1006.56
2016-09-13T11:09:41.254Z,1006.51
2016-09-13T11:10:41.250Z,1006.54
2016-09-13T11:11:41.249Z,1006.53
2016-09-13T11:12:41.250Z,1006.53
2016-09-13T11:13:41.251Z,1006.59
2016-09-13T11:14:41.255Z,1006.57
2016-09-13T11:15:41.254Z,1006.57
2016-09-13T11:16:41.257Z,1006.56
2016-09-13T11:17:41.258Z,1006.55
2016-09-13T11:18:41.260Z,1006.57
2016-09-13T11:19:41.264Z,1006.5
2016-09-13T11:20:41.265Z,1006.54
2016-09-13T11:21:41.267Z,1006.5
2016-09-13T11:22:41.268Z,1006.49
2016-09-13T11:23:41.272Z,1006.5
2016-09-13T11:24:41.277Z,1006.52
2016-09-13T11:25:41.279Z,1006.49
2016-09-13T11:26:41.282Z,1006.51
2016-09-13T11:27:41.285Z,1006.52
2016-09-13T11:28:41.295Z,1006.5
2016-09-13T11:29:41.292Z,1006.5
2016-09-13T11:30:41.295Z,1006.45
2016-09-13T11:31:41.299Z,1006.45
2016-09-13T11:32:41.303Z,1006.43
2016-09-13T11:33:41.306Z,1006.38
2016-09-13T11:34:41.311Z,1006.37
2016-09-13T11:35:41.314Z,1006.41
2016-09-13T11:36:41.319Z,1006.42
2016-09-13T11:37:41.323Z,1006.42
2016-09-13T11:38:41.326Z,1006.42
2016-09-13T11:39:41.331Z,1006.41
2016-09-13T11:40:41.335Z,1006.41
2016-09-13T11:41:41.342Z,1006.42
2016-09-13T11:42:41.353Z,1006.46
2016-09-13T11:43:41.349Z,1006.42
2016-09-13T11:44:41.357Z,1006.39
2016-09-13T11:45:41.361Z,1006.39
2016-09-13T11:46:41.368Z,1006.36
2016-09-13T11:47:41.370Z,1006.35
2016-09-13T11:48:41.377Z,1006.31
2016-09-13T11:49:41.384Z,1006.34
2016-09-13T11:50:41.385Z,1006.26
2016-09-13T11:51:41.392Z,1006.29
2016-09-13T11:52:41.400Z,1006.29
2016-09-13T11:53:41.406Z,1006.3
2016-09-13T11:54:41.411Z,1006.31
2016-09-13T11:55:41.417Z,1006.26
2016-09-13T11:56:41.425Z,1006.29
2016-09-13T11:57:41.430Z,1006.31
2016-09-13T11:58:41.436Z,1006.28
2016-09-13T11:59:41.442Z,1006.31
2016-09-13T12:00:41.450Z,1006.31
2016-09-13T12:01:41.453Z,1006.34
2016-09-13T12:02:41.467Z,1006.33
2016-09-13T12:03:41.467Z,1006.32
2016-09-13T12:04:41.474Z,1006.33
2016-09-13T12:05:41.480Z,1006.3
2016-09-13T12:06:41.487Z,1006.32
2016-09-13T12:07:41.495Z,1006.31
2016-09-13T12:08:41.498Z,1006.25